Decoded Metar for LFTH (HYERES in FRANCE) (IATA:TLN) | Meteo·Mobile Aviation Weather
aviador You're here:

LFTH Decoded Metar

HYERES in FRANCE
Report Time2018-10-18 15:00:00
UTC Time2018-10-18 15:31:30
Flight Rules vfr VFR
Wind070° at 09 kt
W.Decomp.*RWY 05: 8.5 kt HW 2.9 kt RCW
RWY 13: 4.4 kt HW 7.9 kt LCW
W.Rank070° ranks 24
Current wind is below 070° avg. (9.6)
Visibility9999 m
Phenomena:N/A
Clouds:N/A
Expected CloudBase > 3,600 ft AGL from Temp-Dew spread
CeilingNone
Temp24°C (ISA +9)
Dew Point15°C (57% RH)
AAT22.4°C
QNH1012 hPa
Density Alt1,322 ft
Elevation13 ft
Report Wrong Elevation
Raw Report
LFTH 181500Z AUTO 07009KT 030V110 CAVOK 24/15 Q1012 NOSIG=

Extra information for LFTH:More info

Metar Taf Metar & Taf Last 4 Metars F.Rules Stats Wind Profile Meteogram Temp Stats Airport Information Weather charts Add Link Nearby VenuesMetar ALERT Operation Metar Decoded Social comments